sensor_id;sensor_type;location;lat;lon;timestamp;temperature;humidity
21244;DHT22;10780;50.942;4.028;2023-03-08T00:01:33;4.90;99.90
21244;DHT22;10780;50.942;4.028;2023-03-08T00:03:59;5.00;99.90
21244;DHT22;10780;50.942;4.028;2023-03-08T00:06:26;5.10;99.90
21244;DHT22;10780;50.942;4.028;2023-03-08T00:08:59;5.00;99.90
21244;DHT22;10780;50.942;4.028;2023-03-08T00:11:26;5.00;99.90
21244;DHT22;10780;50.942;4.028;2023-03-08T00:13:52;4.90;99.90
21244;DHT22;10780;50.942;4.028;2023-03-08T00:16:19;5.00;99.90
21244;DHT22;10780;50.942;4.028;2023-03-08T00:18:45;5.00;99.90
21244;DHT22;10780;50.942;4.028;2023-03-08T00:21:13;5.00;99.90
21244;DHT22;10780;50.942;4.028;2023-03-08T00:23:39;5.00;99.90
21244;DHT22;10780;50.942;4.028;2023-03-08T00:26:05;5.00;99.90
21244;DHT22;10780;50.942;4.028;2023-03-08T00:28:31;5.00;99.90
21244;DHT22;10780;50.942;4.028;2023-03-08T00:30:59;5.10;99.90
21244;DHT22;10780;50.942;4.028;2023-03-08T00:33:25;5.00;99.90
21244;DHT22;10780;50.942;4.028;2023-03-08T00:35:58;4.90;99.90
21244;DHT22;10780;50.942;4.028;2023-03-08T00:38:24;5.00;99.90
21244;DHT22;10780;50.942;4.028;2023-03-08T00:40:50;5.10;99.90
21244;DHT22;10780;50.942;4.028;2023-03-08T00:43:16;5.00;99.90
21244;DHT22;10780;50.942;4.028;2023-03-08T00:45:41;5.00;99.90
21244;DHT22;10780;50.942;4.028;2023-03-08T00:48:07;5.00;99.90
21244;DHT22;10780;50.942;4.028;2023-03-08T00:50:33;5.00;99.90
21244;DHT22;10780;50.942;4.028;2023-03-08T00:52:58;5.10;99.90
21244;DHT22;10780;50.942;4.028;2023-03-08T00:55:24;5.00;99.90
21244;DHT22;10780;50.942;4.028;2023-03-08T00:57:50;5.10;99.90
21244;DHT22;10780;50.942;4.028;2023-03-08T01:00:16;5.10;99.90
21244;DHT22;10780;50.942;4.028;2023-03-08T01:02:42;5.00;99.90
21244;DHT22;10780;50.942;4.028;2023-03-08T01:05:08;5.10;99.90
21244;DHT22;10780;50.942;4.028;2023-03-08T01:07:34;5.00;99.90
21244;DHT22;10780;50.942;4.028;2023-03-08T01:10:00;4.90;99.90
21244;DHT22;10780;50.942;4.028;2023-03-08T01:12:25;4.90;99.90
21244;DHT22;10780;50.942;4.028;2023-03-08T01:14:52;4.90;99.90
21244;DHT22;10780;50.942;4.028;2023-03-08T01:17:18;4.80;99.90
21244;DHT22;10780;50.942;4.028;2023-03-08T01:19:44;4.90;99.90
21244;DHT22;10780;50.942;4.028;2023-03-08T01:22:10;5.00;99.90
21244;DHT22;10780;50.942;4.028;2023-03-08T01:24:35;4.90;99.90
21244;DHT22;10780;50.942;4.028;2023-03-08T01:27:01;4.90;99.90
21244;DHT22;10780;50.942;4.028;2023-03-08T01:29:27;4.90;99.90
21244;DHT22;10780;50.942;4.028;2023-03-08T01:31:53;4.90;99.90
21244;DHT22;10780;50.942;4.028;2023-03-08T01:34:19;5.00;99.90
21244;DHT22;10780;50.942;4.028;2023-03-08T01:36:45;4.90;99.90
21244;DHT22;10780;50.942;4.028;2023-03-08T01:39:10;4.90;99.90
21244;DHT22;10780;50.942;4.028;2023-03-08T01:41:36;5.00;99.90
21244;DHT22;10780;50.942;4.028;2023-03-08T01:44:02;4.90;99.90
21244;DHT22;10780;50.942;4.028;2023-03-08T01:46:33;4.90;99.90
21244;DHT22;10780;50.942;4.028;2023-03-08T01:54:24;4.90;99.90
21244;DHT22;10780;50.942;4.028;2023-03-08T01:56:52;4.80;99.90
21244;DHT22;10780;50.942;4.028;2023-03-08T01:59:21;4.80;99.90
21244;DHT22;10780;50.942;4.028;2023-03-08T02:01:47;4.80;99.90
21244;DHT22;10780;50.942;4.028;2023-03-08T02:04:14;4.90;99.90
21244;DHT22;10780;50.942;4.028;2023-03-08T02:06:41;4.90;99.90
21244;DHT22;10780;50.942;4.028;2023-03-08T02:09:07;4.90;99.90
21244;DHT22;10780;50.942;4.028;2023-03-08T02:11:34;4.90;99.90
21244;DHT22;10780;50.942;4.028;2023-03-08T02:14:01;4.90;99.90
21244;DHT22;10780;50.942;4.028;2023-03-08T02:16:27;4.80;99.90
21244;DHT22;10780;50.942;4.028;2023-03-08T02:19:03;4.90;99.90
21244;DHT22;10780;50.942;4.028;2023-03-08T02:21:30;4.90;99.90
21244;DHT22;10780;50.942;4.028;2023-03-08T02:24:04;4.90;99.90
21244;DHT22;10780;50.942;4.028;2023-03-08T02:26:32;4.90;99.90
21244;DHT22;10780;50.942;4.028;2023-03-08T02:28:58;4.90;99.90
21244;DHT22;10780;50.942;4.028;2023-03-08T02:31:23;5.10;99.90
21244;DHT22;10780;50.942;4.028;2023-03-08T02:33:49;5.10;99.90
21244;DHT22;10780;50.942;4.028;2023-03-08T02:36:14;5.20;99.90
21244;DHT22;10780;50.942;4.028;2023-03-08T02:38:40;5.20;99.90
21244;DHT22;10780;50.942;4.028;2023-03-08T02:41:06;5.20;99.90
21244;DHT22;10780;50.942;4.028;2023-03-08T02:43:31;5.10;99.90
21244;DHT22;10780;50.942;4.028;2023-03-08T02:45:57;5.00;99.90
21244;DHT22;10780;50.942;4.028;2023-03-08T02:48:23;4.80;99.90
21244;DHT22;10780;50.942;4.028;2023-03-08T02:50:48;4.80;99.90
21244;DHT22;10780;50.942;4.028;2023-03-08T02:53:14;4.70;99.90
21244;DHT22;10780;50.942;4.028;2023-03-08T02:55:40;4.70;99.90
21244;DHT22;10780;50.942;4.028;2023-03-08T02:58:06;4.70;99.90
21244;DHT22;10780;50.942;4.028;2023-03-08T03:00:33;4.70;99.90
21244;DHT22;10780;50.942;4.028;2023-03-08T03:02:59;4.60;99.90
21244;DHT22;10780;50.942;4.028;2023-03-08T03:05:24;4.60;99.90
21244;DHT22;10780;50.942;4.028;2023-03-08T03:07:50;4.60;99.90
21244;DHT22;10780;50.942;4.028;2023-03-08T03:10:16;4.60;99.90
21244;DHT22;10780;50.942;4.028;2023-03-08T03:12:41;4.60;99.90
21244;DHT22;10780;50.942;4.028;2023-03-08T03:15:09;4.60;99.90
21244;DHT22;10780;50.942;4.028;2023-03-08T03:17:35;4.70;99.90
21244;DHT22;10780;50.942;4.028;2023-03-08T03:20:05;4.60;99.90
21244;DHT22;10780;50.942;4.028;2023-03-08T03:22:33;4.60;99.90
21244;DHT22;10780;50.942;4.028;2023-03-08T03:24:59;4.60;99.90
21244;DHT22;10780;50.942;4.028;2023-03-08T03:27:25;4.50;99.90
21244;DHT22;10780;50.942;4.028;2023-03-08T03:29:50;4.30;99.90
21244;DHT22;10780;50.942;4.028;2023-03-08T03:32:16;4.20;99.90
21244;DHT22;10780;50.942;4.028;2023-03-08T03:34:42;4.10;99.90
21244;DHT22;10780;50.942;4.028;2023-03-08T03:37:07;4.00;99.90
21244;DHT22;10780;50.942;4.028;2023-03-08T03:39:37;4.20;99.90
21244;DHT22;10780;50.942;4.028;2023-03-08T03:42:04;4.20;99.90
21244;DHT22;10780;50.942;4.028;2023-03-08T03:44:30;4.20;99.90
21244;DHT22;10780;50.942;4.028;2023-03-08T03:46:56;4.10;99.90
21244;DHT22;10780;50.942;4.028;2023-03-08T03:49:22;4.10;99.90
21244;DHT22;10780;50.942;4.028;2023-03-08T03:51:47;4.00;99.90
21244;DHT22;10780;50.942;4.028;2023-03-08T03:54:13;4.00;99.90
21244;DHT22;10780;50.942;4.028;2023-03-08T03:56:38;3.90;99.90
21244;DHT22;10780;50.942;4.028;2023-03-08T03:59:04;3.90;99.90
21244;DHT22;10780;50.942;4.028;2023-03-08T04:01:31;4.00;99.90
21244;DHT22;10780;50.942;4.028;2023-03-08T04:03:57;4.00;99.90
21244;DHT22;10780;50.942;4.028;2023-03-08T04:06:28;4.00;99.90
21244;DHT22;10780;50.942;4.028;2023-03-08T04:08:56;3.80;99.90
21244;DHT22;10780;50.942;4.028;2023-03-08T04:11:25;3.80;99.90
21244;DHT22;10780;50.942;4.028;2023-03-08T04:13:51;3.80;99.90
21244;DHT22;10780;50.942;4.028;2023-03-08T04:16:22;3.80;99.90
21244;DHT22;10780;50.942;4.028;2023-03-08T04:18:52;3.70;99.90
21244;DHT22;10780;50.942;4.028;2023-03-08T04:21:18;3.60;99.90
21244;DHT22;10780;50.942;4.028;2023-03-08T04:23:44;3.50;99.90
21244;DHT22;10780;50.942;4.028;2023-03-08T04:26:09;3.50;99.90
21244;DHT22;10780;50.942;4.028;2023-03-08T04:28:35;3.50;99.90
21244;DHT22;10780;50.942;4.028;2023-03-08T04:33:37;3.50;99.90
21244;DHT22;10780;50.942;4.028;2023-03-08T04:36:02;3.40;99.90
21244;DHT22;10780;50.942;4.028;2023-03-08T04:38:28;3.30;99.90
21244;DHT22;10780;50.942;4.028;2023-03-08T04:40:54;3.40;99.90
21244;DHT22;10780;50.942;4.028;2023-03-08T04:43:46;3.40;99.90
21244;DHT22;10780;50.942;4.028;2023-03-08T04:46:12;3.50;99.90
21244;DHT22;10780;50.942;4.028;2023-03-08T04:48:38;3.50;99.90
21244;DHT22;10780;50.942;4.028;2023-03-08T04:51:06;3.50;99.90
21244;DHT22;10780;50.942;4.028;2023-03-08T04:53:33;3.50;99.90
21244;DHT22;10780;50.942;4.028;2023-03-08T04:56:00;3.60;99.90
21244;DHT22;10780;50.942;4.028;2023-03-08T04:58:27;3.50;99.90
21244;DHT22;10780;50.942;4.028;2023-03-08T05:00:53;3.50;99.90
21244;DHT22;10780;50.942;4.028;2023-03-08T05:03:19;3.40;99.90
21244;DHT22;10780;50.942;4.028;2023-03-08T05:05:49;3.50;99.90
21244;DHT22;10780;50.942;4.028;2023-03-08T05:08:16;3.50;99.90
21244;DHT22;10780;50.942;4.028;2023-03-08T05:11:07;3.40;99.90
21244;DHT22;10780;50.942;4.028;2023-03-08T05:13:37;3.40;99.90
21244;DHT22;10780;50.942;4.028;2023-03-08T05:16:05;3.40;99.90
21244;DHT22;10780;50.942;4.028;2023-03-08T05:18:31;3.30;99.90
21244;DHT22;10780;50.942;4.028;2023-03-08T05:20:59;3.30;99.90
21244;DHT22;10780;50.942;4.028;2023-03-08T05:23:26;3.30;99.90
21244;DHT22;10780;50.942;4.028;2023-03-08T05:25:57;3.30;99.90
21244;DHT22;10780;50.942;4.028;2023-03-08T05:28:24;3.30;99.90
21244;DHT22;10780;50.942;4.028;2023-03-08T05:31:20;3.20;99.90
21244;DHT22;10780;50.942;4.028;2023-03-08T05:33:46;3.20;99.90
21244;DHT22;10780;50.942;4.028;2023-03-08T05:36:15;3.10;99.90
21244;DHT22;10780;50.942;4.028;2023-03-08T05:38:41;3.10;99.90
21244;DHT22;10780;50.942;4.028;2023-03-08T05:41:11;3.20;99.90
21244;DHT22;10780;50.942;4.028;2023-03-08T05:43:37;3.00;99.90
21244;DHT22;10780;50.942;4.028;2023-03-08T05:46:05;3.10;99.90
21244;DHT22;10780;50.942;4.028;2023-03-08T05:48:33;3.00;99.90
21244;DHT22;10780;50.942;4.028;2023-03-08T05:51:07;3.00;99.90
21244;DHT22;10780;50.942;4.028;2023-03-08T05:53:33;3.00;99.90
21244;DHT22;10780;50.942;4.028;2023-03-08T05:56:14;3.00;99.90
21244;DHT22;10780;50.942;4.028;2023-03-08T05:58:40;3.10;99.90
21244;DHT22;10780;50.942;4.028;2023-03-08T06:01:09;3.10;99.90
21244;DHT22;10780;50.942;4.028;2023-03-08T06:03:35;3.10;99.90
21244;DHT22;10780;50.942;4.028;2023-03-08T06:06:01;3.10;99.90
21244;DHT22;10780;50.942;4.028;2023-03-08T06:08:26;3.20;99.90
21244;DHT22;10780;50.942;4.028;2023-03-08T06:10:52;3.30;99.90
21244;DHT22;10780;50.942;4.028;2023-03-08T06:13:18;3.20;99.90
21244;DHT22;10780;50.942;4.028;2023-03-08T06:15:43;3.30;99.90
21244;DHT22;10780;50.942;4.028;2023-03-08T06:18:09;3.10;99.90
21244;DHT22;10780;50.942;4.028;2023-03-08T06:20:34;3.20;99.90
21244;DHT22;10780;50.942;4.028;2023-03-08T06:23:00;3.20;99.90
21244;DHT22;10780;50.942;4.028;2023-03-08T06:25:26;3.20;99.90
21244;DHT22;10780;50.942;4.028;2023-03-08T06:27:51;3.20;99.90
21244;DHT22;10780;50.942;4.028;2023-03-08T06:30:17;3.20;99.90
21244;DHT22;10780;50.942;4.028;2023-03-08T06:32:43;3.00;99.90
21244;DHT22;10780;50.942;4.028;2023-03-08T06:35:09;3.10;99.90
21244;DHT22;10780;50.942;4.028;2023-03-08T06:37:35;3.20;99.90
21244;DHT22;10780;50.942;4.028;2023-03-08T06:40:01;3.10;99.90
21244;DHT22;10780;50.942;4.028;2023-03-08T06:42:27;3.10;99.90
21244;DHT22;10780;50.942;4.028;2023-03-08T06:44:53;3.00;99.90
21244;DHT22;10780;50.942;4.028;2023-03-08T06:47:19;3.00;99.90
21244;DHT22;10780;50.942;4.028;2023-03-08T06:49:44;3.10;99.90
21244;DHT22;10780;50.942;4.028;2023-03-08T06:52:10;3.10;99.90
21244;DHT22;10780;50.942;4.028;2023-03-08T06:54:35;3.10;99.90
21244;DHT22;10780;50.942;4.028;2023-03-08T06:57:01;3.10;99.90
21244;DHT22;10780;50.942;4.028;2023-03-08T06:59:27;3.00;99.90
21244;DHT22;10780;50.942;4.028;2023-03-08T07:01:52;3.00;99.90
21244;DHT22;10780;50.942;4.028;2023-03-08T07:04:18;3.00;99.90
21244;DHT22;10780;50.942;4.028;2023-03-08T07:06:44;3.00;99.90
21244;DHT22;10780;50.942;4.028;2023-03-08T07:09:09;2.90;99.90
21244;DHT22;10780;50.942;4.028;2023-03-08T07:11:35;2.90;99.90
21244;DHT22;10780;50.942;4.028;2023-03-08T07:14:01;2.90;99.90
21244;DHT22;10780;50.942;4.028;2023-03-08T07:16:26;2.90;99.90
21244;DHT22;10780;50.942;4.028;2023-03-08T07:18:52;3.00;99.90
21244;DHT22;10780;50.942;4.028;2023-03-08T07:21:18;3.10;99.90
21244;DHT22;10780;50.942;4.028;2023-03-08T07:23:44;3.10;99.90
21244;DHT22;10780;50.942;4.028;2023-03-08T07:26:10;3.10;99.90
21244;DHT22;10780;50.942;4.028;2023-03-08T07:28:36;3.00;99.90
21244;DHT22;10780;50.942;4.028;2023-03-08T07:31:02;3.10;99.90
21244;DHT22;10780;50.942;4.028;2023-03-08T07:33:28;3.10;99.90
21244;DHT22;10780;50.942;4.028;2023-03-08T07:35:59;3.30;99.90
21244;DHT22;10780;50.942;4.028;2023-03-08T07:38:25;3.40;99.90
21244;DHT22;10780;50.942;4.028;2023-03-08T07:40:55;3.50;99.90
21244;DHT22;10780;50.942;4.028;2023-03-08T07:43:21;3.50;99.90
21244;DHT22;10780;50.942;4.028;2023-03-08T07:45:47;3.50;99.90
21244;DHT22;10780;50.942;4.028;2023-03-08T07:48:13;3.50;99.90
21244;DHT22;10780;50.942;4.028;2023-03-08T07:50:38;3.50;99.90
21244;DHT22;10780;50.942;4.028;2023-03-08T07:53:04;3.60;99.90
21244;DHT22;10780;50.942;4.028;2023-03-08T07:55:33;3.50;99.90
21244;DHT22;10780;50.942;4.028;2023-03-08T07:57:58;3.50;99.90
21244;DHT22;10780;50.942;4.028;2023-03-08T08:00:24;3.40;99.90
21244;DHT22;10780;50.942;4.028;2023-03-08T08:02:50;3.40;99.90
21244;DHT22;10780;50.942;4.028;2023-03-08T08:05:18;3.50;99.90
21244;DHT22;10780;50.942;4.028;2023-03-08T08:07:47;3.50;99.90
21244;DHT22;10780;50.942;4.028;2023-03-08T08:10:12;3.40;99.90
21244;DHT22;10780;50.942;4.028;2023-03-08T08:12:38;3.50;99.90
21244;DHT22;10780;50.942;4.028;2023-03-08T08:15:04;3.50;99.90
21244;DHT22;10780;50.942;4.028;2023-03-08T08:17:30;3.40;99.90
21244;DHT22;10780;50.942;4.028;2023-03-08T08:19:55;3.20;99.90
21244;DHT22;10780;50.942;4.028;2023-03-08T08:22:22;3.20;99.90
21244;DHT22;10780;50.942;4.028;2023-03-08T08:24:48;3.20;99.90
21244;DHT22;10780;50.942;4.028;2023-03-08T08:27:14;3.20;99.90
21244;DHT22;10780;50.942;4.028;2023-03-08T08:29:39;3.10;99.90
21244;DHT22;10780;50.942;4.028;2023-03-08T08:32:05;3.10;99.90
21244;DHT22;10780;50.942;4.028;2023-03-08T08:34:31;3.20;99.90
21244;DHT22;10780;50.942;4.028;2023-03-08T08:36:58;3.30;99.90
21244;DHT22;10780;50.942;4.028;2023-03-08T08:39:24;3.40;99.90
21244;DHT22;10780;50.942;4.028;2023-03-08T08:41:50;3.40;99.90
21244;DHT22;10780;50.942;4.028;2023-03-08T08:44:16;3.60;99.90
21244;DHT22;10780;50.942;4.028;2023-03-08T08:46:41;3.70;99.90
21244;DHT22;10780;50.942;4.028;2023-03-08T08:49:08;3.80;99.90
21244;DHT22;10780;50.942;4.028;2023-03-08T08:51:34;3.70;99.90
21244;DHT22;10780;50.942;4.028;2023-03-08T08:53:59;3.60;99.90
21244;DHT22;10780;50.942;4.028;2023-03-08T08:56:26;3.50;99.90
21244;DHT22;10780;50.942;4.028;2023-03-08T08:58:53;3.50;99.90
21244;DHT22;10780;50.942;4.028;2023-03-08T09:01:21;3.70;99.90
21244;DHT22;10780;50.942;4.028;2023-03-08T09:03:48;3.90;99.90
21244;DHT22;10780;50.942;4.028;2023-03-08T09:06:16;3.90;99.90
21244;DHT22;10780;50.942;4.028;2023-03-08T09:08:44;4.00;99.90
21244;DHT22;10780;50.942;4.028;2023-03-08T09:11:10;3.70;99.90
21244;DHT22;10780;50.942;4.028;2023-03-08T09:13:37;3.80;99.90
21244;DHT22;10780;50.942;4.028;2023-03-08T09:16:15;3.70;99.90
21244;DHT22;10780;50.942;4.028;2023-03-08T09:18:41;3.90;99.90
21244;DHT22;10780;50.942;4.028;2023-03-08T09:21:09;4.00;99.90
21244;DHT22;10780;50.942;4.028;2023-03-08T09:23:35;4.10;99.90
21244;DHT22;10780;50.942;4.028;2023-03-08T09:26:00;4.20;99.90
21244;DHT22;10780;50.942;4.028;2023-03-08T09:28:29;4.30;99.90
21244;DHT22;10780;50.942;4.028;2023-03-08T09:30:55;4.40;99.90
21244;DHT22;10780;50.942;4.028;2023-03-08T09:33:20;4.40;99.90
21244;DHT22;10780;50.942;4.028;2023-03-08T09:35:55;4.40;99.90
21244;DHT22;10780;50.942;4.028;2023-03-08T09:38:21;4.30;99.90
21244;DHT22;10780;50.942;4.028;2023-03-08T09:49:28;4.60;99.90
21244;DHT22;10780;50.942;4.028;2023-03-08T09:52:14;4.70;99.90
21244;DHT22;10780;50.942;4.028;2023-03-08T09:54:42;4.90;99.90
21244;DHT22;10780;50.942;4.028;2023-03-08T09:57:22;5.20;99.90
21244;DHT22;10780;50.942;4.028;2023-03-08T09:59:58;5.40;99.90
21244;DHT22;10780;50.942;4.028;2023-03-08T10:05:36;5.30;99.90
21244;DHT22;10780;50.942;4.028;2023-03-08T10:08:17;5.40;99.90
21244;DHT22;10780;50.942;4.028;2023-03-08T10:11:12;5.60;99.90
21244;DHT22;10780;50.942;4.028;2023-03-08T10:13:48;6.00;99.90
21244;DHT22;10780;50.942;4.028;2023-03-08T10:16:29;6.20;99.90
21244;DHT22;10780;50.942;4.028;2023-03-08T10:21:43;6.70;99.90
21244;DHT22;10780;50.942;4.028;2023-03-08T10:24:45;6.50;99.90
21244;DHT22;10780;50.942;4.028;2023-03-08T10:29:52;6.70;99.90
21244;DHT22;10780;50.942;4.028;2023-03-08T10:32:18;6.70;99.90
21244;DHT22;10780;50.942;4.028;2023-03-08T10:34:45;6.90;99.90
21244;DHT22;10780;50.942;4.028;2023-03-08T10:37:11;6.70;99.90
21244;DHT22;10780;50.942;4.028;2023-03-08T10:39:53;6.50;99.90
21244;DHT22;10780;50.942;4.028;2023-03-08T10:42:27;6.60;99.90
21244;DHT22;10780;50.942;4.028;2023-03-08T10:44:59;6.40;99.90
21244;DHT22;10780;50.942;4.028;2023-03-08T10:47:34;6.60;99.90
21244;DHT22;10780;50.942;4.028;2023-03-08T10:50:21;6.30;99.90
21244;DHT22;10780;50.942;4.028;2023-03-08T10:52:48;6.30;99.90
21244;DHT22;10780;50.942;4.028;2023-03-08T10:55:25;6.30;99.90
21244;DHT22;10780;50.942;4.028;2023-03-08T10:57:59;6.30;99.90
21244;DHT22;10780;50.942;4.028;2023-03-08T11:00:41;6.10;99.90
21244;DHT22;10780;50.942;4.028;2023-03-08T11:03:16;5.90;99.90
21244;DHT22;10780;50.942;4.028;2023-03-08T11:06:02;5.80;99.90
21244;DHT22;10780;50.942;4.028;2023-03-08T11:08:37;5.60;99.90
21244;DHT22;10780;50.942;4.028;2023-03-08T11:11:11;5.70;99.90
21244;DHT22;10780;50.942;4.028;2023-03-08T11:13:42;5.70;99.90
21244;DHT22;10780;50.942;4.028;2023-03-08T11:19:02;6.00;99.90
21244;DHT22;10780;50.942;4.028;2023-03-08T11:24:09;6.60;99.90
21244;DHT22;10780;50.942;4.028;2023-03-08T11:27:21;6.60;99.90
21244;DHT22;10780;50.942;4.028;2023-03-08T11:38:17;6.10;99.90
21244;DHT22;10780;50.942;4.028;2023-03-08T11:43:53;5.80;99.90
21244;DHT22;10780;50.942;4.028;2023-03-08T11:56:56;5.80;99.90
21244;DHT22;10780;50.942;4.028;2023-03-08T12:01:57;5.90;99.90
21244;DHT22;10780;50.942;4.028;2023-03-08T12:07:33;6.60;99.90
21244;DHT22;10780;50.942;4.028;2023-03-08T12:13:14;6.80;99.90
21244;DHT22;10780;50.942;4.028;2023-03-08T12:15:25;6.90;99.90
21244;DHT22;10780;50.942;4.028;2023-03-08T12:17:58;7.00;99.90
21244;DHT22;10780;50.942;4.028;2023-03-08T12:20:30;6.50;99.90
21244;DHT22;10780;50.942;4.028;2023-03-08T12:25:39;6.30;99.90
21244;DHT22;10780;50.942;4.028;2023-03-08T12:33:29;6.10;99.90
21244;DHT22;10780;50.942;4.028;2023-03-08T12:36:00;6.00;99.90
21244;DHT22;10780;50.942;4.028;2023-03-08T12:38:31;5.90;99.90
21244;DHT22;10780;50.942;4.028;2023-03-08T12:40:56;5.90;99.90
21244;DHT22;10780;50.942;4.028;2023-03-08T12:46:04;6.10;99.90
21244;DHT22;10780;50.942;4.028;2023-03-08T12:58:46;5.80;99.90
21244;DHT22;10780;50.942;4.028;2023-03-08T13:01:43;5.60;99.90
21244;DHT22;10780;50.942;4.028;2023-03-08T13:04:36;5.50;99.90
21244;DHT22;10780;50.942;4.028;2023-03-08T13:14:57;5.40;99.90
21244;DHT22;10780;50.942;4.028;2023-03-08T13:17:33;5.60;99.90
21244;DHT22;10780;50.942;4.028;2023-03-08T13:22:53;5.60;99.90
21244;DHT22;10780;50.942;4.028;2023-03-08T13:25:24;5.60;99.90
21244;DHT22;10780;50.942;4.028;2023-03-08T13:28:09;5.80;99.90
21244;DHT22;10780;50.942;4.028;2023-03-08T13:30:52;5.70;99.90
21244;DHT22;10780;50.942;4.028;2023-03-08T13:33:36;5.70;99.90
21244;DHT22;10780;50.942;4.028;2023-03-08T13:38:39;5.50;99.90
21244;DHT22;10780;50.942;4.028;2023-03-08T13:41:05;5.50;99.90
21244;DHT22;10780;50.942;4.028;2023-03-08T13:43:33;5.40;99.90
21244;DHT22;10780;50.942;4.028;2023-03-08T13:46:02;5.30;99.90
21244;DHT22;10780;50.942;4.028;2023-03-08T13:48:31;5.30;99.90
21244;DHT22;10780;50.942;4.028;2023-03-08T13:50:58;5.40;99.90
21244;DHT22;10780;50.942;4.028;2023-03-08T13:53:27;5.50;99.90
21244;DHT22;10780;50.942;4.028;2023-03-08T13:55:56;5.50;99.90
21244;DHT22;10780;50.942;4.028;2023-03-08T13:58:35;5.70;99.90
21244;DHT22;10780;50.942;4.028;2023-03-08T14:01:12;5.70;99.90
21244;DHT22;10780;50.942;4.028;2023-03-08T14:03:38;5.70;99.90
21244;DHT22;10780;50.942;4.028;2023-03-08T14:06:25;5.50;99.90
21244;DHT22;10780;50.942;4.028;2023-03-08T14:08:53;5.60;99.90
21244;DHT22;10780;50.942;4.028;2023-03-08T14:11:36;5.80;99.90
21244;DHT22;10780;50.942;4.028;2023-03-08T14:14:05;5.70;99.90
21244;DHT22;10780;50.942;4.028;2023-03-08T14:16:36;5.80;99.90
21244;DHT22;10780;50.942;4.028;2023-03-08T14:19:26;5.80;99.90
21244;DHT22;10780;50.942;4.028;2023-03-08T14:22:01;5.60;99.90
21244;DHT22;10780;50.942;4.028;2023-03-08T14:24:32;5.60;99.90
21244;DHT22;10780;50.942;4.028;2023-03-08T14:29:27;5.70;99.90
21244;DHT22;10780;50.942;4.028;2023-03-08T14:32:05;5.70;99.90
21244;DHT22;10780;50.942;4.028;2023-03-08T14:34:48;5.60;99.90
21244;DHT22;10780;50.942;4.028;2023-03-08T14:37:23;5.70;99.90
21244;DHT22;10780;50.942;4.028;2023-03-08T14:39:52;5.80;99.90
21244;DHT22;10780;50.942;4.028;2023-03-08T14:42:34;5.90;99.90
21244;DHT22;10780;50.942;4.028;2023-03-08T14:45:26;5.90;99.90
21244;DHT22;10780;50.942;4.028;2023-03-08T14:47:55;5.80;99.90
21244;DHT22;10780;50.942;4.028;2023-03-08T14:50:31;5.80;99.90
21244;DHT22;10780;50.942;4.028;2023-03-08T14:52:58;5.60;99.90
21244;DHT22;10780;50.942;4.028;2023-03-08T14:57:54;5.50;99.90
21244;DHT22;10780;50.942;4.028;2023-03-08T15:00:21;5.50;99.90
21244;DHT22;10780;50.942;4.028;2023-03-08T15:02:47;5.50;99.90
21244;DHT22;10780;50.942;4.028;2023-03-08T15:05:14;5.60;99.90
21244;DHT22;10780;50.942;4.028;2023-03-08T15:07:41;5.60;99.90
21244;DHT22;10780;50.942;4.028;2023-03-08T15:10:09;5.60;99.90
21244;DHT22;10780;50.942;4.028;2023-03-08T15:12:37;5.70;99.90
21244;DHT22;10780;50.942;4.028;2023-03-08T15:15:13;5.70;99.90
21244;DHT22;10780;50.942;4.028;2023-03-08T15:17:39;5.80;99.90
21244;DHT22;10780;50.942;4.028;2023-03-08T15:20:05;5.70;99.90
21244;DHT22;10780;50.942;4.028;2023-03-08T15:22:31;5.60;99.90
21244;DHT22;10780;50.942;4.028;2023-03-08T15:24:59;5.40;99.90
21244;DHT22;10780;50.942;4.028;2023-03-08T15:27:24;5.50;99.90
21244;DHT22;10780;50.942;4.028;2023-03-08T15:29:50;5.60;99.90
21244;DHT22;10780;50.942;4.028;2023-03-08T15:32:16;5.50;99.90
21244;DHT22;10780;50.942;4.028;2023-03-08T15:34:41;5.50;99.90
21244;DHT22;10780;50.942;4.028;2023-03-08T15:37:12;5.40;99.90
21244;DHT22;10780;50.942;4.028;2023-03-08T15:39:38;5.50;99.90
21244;DHT22;10780;50.942;4.028;2023-03-08T15:42:04;5.60;99.90
21244;DHT22;10780;50.942;4.028;2023-03-08T15:44:30;5.50;99.90
21244;DHT22;10780;50.942;4.028;2023-03-08T15:46:56;5.40;99.90
21244;DHT22;10780;50.942;4.028;2023-03-08T15:49:21;5.50;99.90
21244;DHT22;10780;50.942;4.028;2023-03-08T15:51:47;5.50;99.90
21244;DHT22;10780;50.942;4.028;2023-03-08T15:54:13;5.40;99.90
21244;DHT22;10780;50.942;4.028;2023-03-08T15:56:38;5.40;99.90
21244;DHT22;10780;50.942;4.028;2023-03-08T15:59:04;5.40;99.90
21244;DHT22;10780;50.942;4.028;2023-03-08T16:01:29;5.50;99.90
21244;DHT22;10780;50.942;4.028;2023-03-08T16:03:57;5.20;99.90
21244;DHT22;10780;50.942;4.028;2023-03-08T16:06:23;5.20;99.90
21244;DHT22;10780;50.942;4.028;2023-03-08T16:08:49;5.20;99.90
21244;DHT22;10780;50.942;4.028;2023-03-08T16:11:16;5.10;99.90
21244;DHT22;10780;50.942;4.028;2023-03-08T16:13:48;5.10;99.90
21244;DHT22;10780;50.942;4.028;2023-03-08T16:16:14;5.10;99.90
21244;DHT22;10780;50.942;4.028;2023-03-08T16:18:40;5.10;99.90
21244;DHT22;10780;50.942;4.028;2023-03-08T16:21:07;5.20;99.90
21244;DHT22;10780;50.942;4.028;2023-03-08T16:23:34;5.30;99.90
21244;DHT22;10780;50.942;4.028;2023-03-08T16:26:11;5.30;99.90
21244;DHT22;10780;50.942;4.028;2023-03-08T16:28:37;5.30;99.90
21244;DHT22;10780;50.942;4.028;2023-03-08T16:31:03;5.30;99.90
21244;DHT22;10780;50.942;4.028;2023-03-08T16:33:29;5.30;99.90
21244;DHT22;10780;50.942;4.028;2023-03-08T16:35:55;5.20;99.90
21244;DHT22;10780;50.942;4.028;2023-03-08T16:38:23;5.20;99.90
21244;DHT22;10780;50.942;4.028;2023-03-08T16:40:48;5.20;99.90
21244;DHT22;10780;50.942;4.028;2023-03-08T16:43:14;5.10;99.90
21244;DHT22;10780;50.942;4.028;2023-03-08T16:45:54;5.00;99.90
21244;DHT22;10780;50.942;4.028;2023-03-08T16:48:20;5.10;99.90
21244;DHT22;10780;50.942;4.028;2023-03-08T16:50:51;5.00;99.90
21244;DHT22;10780;50.942;4.028;2023-03-08T16:53:17;5.00;99.90
21244;DHT22;10780;50.942;4.028;2023-03-08T16:55:44;4.90;99.90
21244;DHT22;10780;50.942;4.028;2023-03-08T16:58:09;5.10;99.90
21244;DHT22;10780;50.942;4.028;2023-03-08T17:00:35;5.00;99.90
21244;DHT22;10780;50.942;4.028;2023-03-08T17:03:01;5.10;99.90
21244;DHT22;10780;50.942;4.028;2023-03-08T17:05:26;5.10;99.90
21244;DHT22;10780;50.942;4.028;2023-03-08T17:07:52;5.30;99.90
21244;DHT22;10780;50.942;4.028;2023-03-08T17:10:17;5.30;99.90
21244;DHT22;10780;50.942;4.028;2023-03-08T17:12:43;5.30;99.90
21244;DHT22;10780;50.942;4.028;2023-03-08T17:15:09;5.20;99.90
21244;DHT22;10780;50.942;4.028;2023-03-08T17:17:37;5.20;99.90
21244;DHT22;10780;50.942;4.028;2023-03-08T17:20:04;5.20;99.90
21244;DHT22;10780;50.942;4.028;2023-03-08T17:22:30;5.20;99.90
21244;DHT22;10780;50.942;4.028;2023-03-08T17:24:58;5.10;99.90
21244;DHT22;10780;50.942;4.028;2023-03-08T17:27:24;5.20;99.90
21244;DHT22;10780;50.942;4.028;2023-03-08T17:29:51;5.30;99.90
21244;DHT22;10780;50.942;4.028;2023-03-08T17:32:17;5.40;99.90
21244;DHT22;10780;50.942;4.028;2023-03-08T17:34:42;5.50;99.90